Time;durP1;ratioP1;P1;durP2;ratioP2;P2;SDS_P1;SDS_P2;PMS_P1;PMS_P2;Temp;Humidity;BMP_temperature;BMP_pressure;BME280_temperature;BME280_humidity;BME280_pressure;Samples;Min_cycle;Max_cycle;Signal;HPM_P1;HPM_P2
2023/05/21 00:01:22;;;;;;;0.80;0.80;;;;;;;;;;5072122;28;20048;-60
2023/05/21 00:03:49;;;;;;;0.85;0.77;;;;;;;;;;5071204;28;20078;-60
2023/05/21 00:06:15;;;;;;;0.70;0.70;;;;;;;;;;5070122;28;20515;-60
2023/05/21 00:08:41;;;;;;;0.98;0.95;;;;;;;;;;5071260;28;20052;-59
2023/05/21 00:11:08;;;;;;;0.73;0.73;;;;;;;;;;5068552;28;20075;-60
2023/05/21 00:13:34;;;;;;;0.60;0.60;;;;;;;;;;5068970;28;20033;-60
2023/05/21 00:16:00;;;;;;;1.00;0.80;;;;;;;;;;5071357;28;20519;-59
2023/05/21 00:18:26;;;;;;;0.82;0.80;;;;;;;;;;5070925;28;20143;-60
2023/05/21 00:20:53;;;;;;;0.80;0.80;;;;;;;;;;5059827;28;20045;-60
2023/05/21 00:23:20;;;;;;;1.00;0.90;;;;;;;;;;5055373;28;20036;-60
2023/05/21 00:25:46;;;;;;;0.63;0.63;;;;;;;;;;5058204;28;20047;-60
2023/05/21 00:28:12;;;;;;;2.20;0.85;;;;;;;;;;5056023;28;20051;-59
2023/05/21 00:30:38;;;;;;;1.10;1.00;;;;;;;;;;5053353;28;20441;-60
2023/05/21 00:33:04;;;;;;;0.60;0.60;;;;;;;;;;5053217;28;20044;-60
2023/05/21 00:35:30;;;;;;;1.45;1.00;;;;;;;;;;5056528;28;20472;-60
2023/05/21 00:37:57;;;;;;;1.05;0.95;;;;;;;;;;5054048;28;20036;-60
2023/05/21 00:40:23;;;;;;;1.10;0.95;;;;;;;;;;5053535;28;20041;-59
2023/05/21 00:42:49;;;;;;;0.82;0.82;;;;;;;;;;5059210;28;20036;-60
2023/05/21 00:45:15;;;;;;;1.05;0.95;;;;;;;;;;5054575;28;20396;-60
2023/05/21 00:47:42;;;;;;;1.27;0.90;;;;;;;;;;5055487;28;20309;-60
2023/05/21 00:50:08;;;;;;;1.30;1.00;;;;;;;;;;5056295;28;20032;-60
2023/05/21 00:52:40;;;;;;;0.88;0.85;;;;;;;;;;5053945;28;20124;-60
2023/05/21 00:55:06;;;;;;;;;;;;;;;;;;5058435;28;20060;-60
2023/05/21 00:57:32;;;;;;;0.93;0.85;;;;;;;;;;5053702;28;19920;-59
2023/05/21 00:59:58;;;;;;;0.85;0.85;;;;;;;;;;5054652;28;20084;-60
2023/05/21 01:02:25;;;;;;;0.70;0.70;;;;;;;;;;5054584;28;20386;-60
2023/05/21 01:04:55;;;;;;;1.00;0.82;;;;;;;;;;5055918;28;20492;-60
2023/05/21 01:07:21;;;;;;;0.75;0.75;;;;;;;;;;5056494;28;20416;-60
2023/05/21 01:09:47;;;;;;;1.08;0.82;;;;;;;;;;5052990;28;20393;-60
2023/05/21 01:12:13;;;;;;;1.10;1.00;;;;;;;;;;5060419;28;20044;-59
2023/05/21 01:14:40;;;;;;;0.70;0.70;;;;;;;;;;5060209;28;20041;-60
2023/05/21 01:17:09;;;;;;;1.15;0.90;;;;;;;;;;5047660;28;20736;-60
2023/05/21 01:19:35;;;;;;;1.25;0.85;;;;;;;;;;5052871;28;20066;-60
2023/05/21 01:22:05;;;;;;;0.73;0.73;;;;;;;;;;5055550;28;20068;-60
2023/05/21 01:24:31;;;;;;;1.15;1.05;;;;;;;;;;5057862;28;20045;-60
2023/05/21 01:26:59;;;;;;;1.40;1.02;;;;;;;;;;5058549;28;20033;-60
2023/05/21 01:29:25;;;;;;;0.60;0.60;;;;;;;;;;5056952;28;20033;-60
2023/05/21 01:32:08;;;;;;;1.05;0.80;;;;;;;;;;5054472;28;20043;-60
2023/05/21 01:34:47;;;;;;;1.35;0.85;;;;;;;;;;5058506;28;20072;-59
2023/05/21 01:37:21;;;;;;;1.00;0.90;;;;;;;;;;5055848;28;20074;-60
2023/05/21 01:39:51;;;;;;;0.90;0.75;;;;;;;;;;5052442;28;20080;-59
2023/05/21 01:42:18;;;;;;;1.52;1.10;;;;;;;;;;5051365;28;20049;-60
2023/05/21 01:44:44;;;;;;;1.15;1.00;;;;;;;;;;5053983;28;20546;-60
2023/05/21 01:47:11;;;;;;;1.45;1.30;;;;;;;;;;5051115;28;20080;-60
2023/05/21 01:49:37;;;;;;;1.40;1.30;;;;;;;;;;5055694;28;20467;-59
2023/05/21 01:52:03;;;;;;;1.98;1.27;;;;;;;;;;5055112;28;20049;-60
2023/05/21 01:54:29;;;;;;;1.35;1.10;;;;;;;;;;5052474;28;20387;-60
2023/05/21 01:56:55;;;;;;;1.58;1.48;;;;;;;;;;5055584;28;20045;-60
2023/05/21 01:59:21;;;;;;;1.55;1.45;;;;;;;;;;5053521;28;20042;-60
2023/05/21 02:01:47;;;;;;;1.35;1.25;;;;;;;;;;5049783;28;20060;-60
2023/05/21 02:04:13;;;;;;;1.60;1.45;;;;;;;;;;5055330;28;20044;-59
2023/05/21 02:06:40;;;;;;;1.55;1.45;;;;;;;;;;5060390;28;20040;-59
2023/05/21 02:09:06;;;;;;;1.98;1.42;;;;;;;;;;5051380;28;20062;-59
2023/05/21 02:11:33;;;;;;;1.42;1.30;;;;;;;;;;5052903;28;20407;-60
2023/05/21 02:13:59;;;;;;;1.50;1.40;;;;;;;;;;5055923;28;20036;-60
2023/05/21 02:16:25;;;;;;;1.52;1.40;;;;;;;;;;5059905;28;20041;-59
2023/05/21 02:18:55;;;;;;;2.67;1.75;;;;;;;;;;5057166;28;20055;-60
2023/05/21 02:21:21;;;;;;;2.28;1.75;;;;;;;;;;5054157;28;20052;-60
2023/05/21 02:23:47;;;;;;;1.52;1.33;;;;;;;;;;5052371;28;20037;-60
2023/05/21 02:26:13;;;;;;;1.23;1.13;;;;;;;;;;5056237;28;20039;-60
2023/05/21 02:28:39;;;;;;;1.63;1.27;;;;;;;;;;5052646;28;20087;-60
2023/05/21 02:31:05;;;;;;;1.10;1.00;;;;;;;;;;5055488;28;20076;-60
2023/05/21 02:33:31;;;;;;;1.25;1.00;;;;;;;;;;5053005;28;20070;-60
2023/05/21 02:35:58;;;;;;;1.95;1.27;;;;;;;;;;5054940;28;20029;-60
2023/05/21 02:38:24;;;;;;;2.20;1.83;;;;;;;;;;5055121;28;20075;-60
2023/05/21 02:40:50;;;;;;;1.88;1.05;;;;;;;;;;5055317;28;20049;-60
2023/05/21 02:43:16;;;;;;;1.63;1.10;;;;;;;;;;5057188;28;20113;-60
2023/05/21 02:45:43;;;;;;;1.67;1.30;;;;;;;;;;5052144;28;20032;-59
2023/05/21 02:48:10;;;;;;;1.02;0.93;;;;;;;;;;5054092;28;20380;-60
2023/05/21 02:50:36;;;;;;;1.50;1.38;;;;;;;;;;5055023;28;20057;-60
2023/05/21 02:53:02;;;;;;;1.98;1.40;;;;;;;;;;5053796;28;20040;-60
2023/05/21 02:55:28;;;;;;;1.05;0.90;;;;;;;;;;5053805;28;20037;-60
2023/05/21 02:57:54;;;;;;;1.65;1.30;;;;;;;;;;5052057;28;20487;-60
2023/05/21 03:00:20;;;;;;;1.27;1.17;;;;;;;;;;5053172;28;20029;-60
2023/05/21 03:02:46;;;;;;;2.13;1.25;;;;;;;;;;5050144;28;20091;-59
2023/05/21 03:05:12;;;;;;;1.02;0.85;;;;;;;;;;5052522;28;20041;-60
2023/05/21 03:07:38;;;;;;;1.58;1.23;;;;;;;;;;5050877;28;20533;-60
2023/05/21 03:10:04;;;;;;;1.35;1.20;;;;;;;;;;5051258;28;20769;-60
2023/05/21 03:12:30;;;;;;;2.38;1.73;;;;;;;;;;5059281;28;20041;-60
2023/05/21 03:14:56;;;;;;;2.47;2.13;;;;;;;;;;5055689;28;20136;-59
2023/05/21 03:17:22;;;;;;;1.67;1.55;;;;;;;;;;5053306;28;20132;-60
2023/05/21 03:19:48;;;;;;;1.48;1.38;;;;;;;;;;5055795;28;20041;-60
2023/05/21 03:22:14;;;;;;;3.00;1.50;;;;;;;;;;5051058;28;20087;-60
2023/05/21 03:24:41;;;;;;;1.30;1.20;;;;;;;;;;5051005;28;20109;-60
2023/05/21 03:27:07;;;;;;;2.50;1.92;;;;;;;;;;5057397;28;20044;-60
2023/05/21 03:29:33;;;;;;;1.98;1.52;;;;;;;;;;5053576;28;20467;-60
2023/05/21 03:32:00;;;;;;;1.52;1.40;;;;;;;;;;5052073;28;20041;-59
2023/05/21 03:34:26;;;;;;;2.17;1.70;;;;;;;;;;5053974;28;20127;-59
2023/05/21 03:36:52;;;;;;;2.08;1.55;;;;;;;;;;5055480;28;20080;-60
2023/05/21 03:39:18;;;;;;;1.63;1.48;;;;;;;;;;5055075;28;20096;-60
2023/05/21 03:41:44;;;;;;;2.50;1.52;;;;;;;;;;5053887;28;20044;-59
2023/05/21 03:44:10;;;;;;;2.92;2.00;;;;;;;;;;5052155;28;20078;-60
2023/05/21 03:46:36;;;;;;;2.22;1.70;;;;;;;;;;5056168;28;20109;-60
2023/05/21 03:49:02;;;;;;;2.28;1.90;;;;;;;;;;5056838;28;20496;-59
2023/05/21 03:51:30;;;;;;;1.80;1.70;;;;;;;;;;5054657;28;20047;-60
2023/05/21 03:54:00;;;;;;;2.13;1.50;;;;;;;;;;5051742;28;20103;-60
2023/05/21 03:56:26;;;;;;;1.90;1.70;;;;;;;;;;5055663;28;20284;-60
2023/05/21 03:58:52;;;;;;;1.38;1.27;;;;;;;;;;5052755;28;20412;-59
2023/05/21 04:01:18;;;;;;;2.03;1.15;;;;;;;;;;5058123;28;20029;-60
2023/05/21 04:03:44;;;;;;;2.95;1.65;;;;;;;;;;5054534;28;20056;-60
2023/05/21 04:06:10;;;;;;;2.10;1.33;;;;;;;;;;5053785;28;20041;-59
2023/05/21 04:08:36;;;;;;;3.75;1.83;;;;;;;;;;5055178;28;20145;-60
2023/05/21 04:11:03;;;;;;;1.80;1.33;;;;;;;;;;5053774;28;20076;-60
2023/05/21 04:13:29;;;;;;;2.53;1.20;;;;;;;;;;5056077;28;20037;-60
2023/05/21 04:15:55;;;;;;;2.53;1.40;;;;;;;;;;5055045;28;20037;-60
2023/05/21 04:18:22;;;;;;;2.08;1.52;;;;;;;;;;5056607;28;20040;-59
2023/05/21 04:20:48;;;;;;;1.92;1.40;;;;;;;;;;5052706;28;20064;-59
2023/05/21 04:23:15;;;;;;;1.92;1.58;;;;;;;;;;5061658;28;20032;-59
2023/05/21 04:25:41;;;;;;;1.30;1.08;;;;;;;;;;5062422;28;20045;-60
2023/05/21 04:28:07;;;;;;;2.03;1.35;;;;;;;;;;5054460;28;20124;-60
2023/05/21 04:30:36;;;;;;;2.58;1.10;;;;;;;;;;5057057;28;20443;-59
2023/05/21 04:33:02;;;;;;;2.33;1.60;;;;;;;;;;5059494;28;20507;-59
2023/05/21 04:35:29;;;;;;;3.00;1.23;;;;;;;;;;5058009;28;20033;-59
2023/05/21 04:37:55;;;;;;;1.67;1.10;;;;;;;;;;5060503;28;20044;-60
2023/05/21 04:40:23;;;;;;;1.55;0.90;;;;;;;;;;5057526;28;20036;-59
2023/05/21 04:42:49;;;;;;;0.90;0.75;;;;;;;;;;5052343;28;20277;-60
2023/05/21 04:45:16;;;;;;;2.67;1.38;;;;;;;;;;5056372;28;20045;-59
2023/05/21 04:47:42;;;;;;;1.83;0.93;;;;;;;;;;5054752;28;20056;-60
2023/05/21 04:50:11;;;;;;;0.90;0.80;;;;;;;;;;5057269;28;20090;-60
2023/05/21 04:52:40;;;;;;;1.48;0.90;;;;;;;;;;5056127;28;20045;-59
2023/05/21 04:55:07;;;;;;;1.27;0.90;;;;;;;;;;5055034;28;20426;-60
2023/05/21 04:57:33;;;;;;;1.70;1.40;;;;;;;;;;5057800;28;20040;-60
2023/05/21 04:59:59;;;;;;;4.13;1.10;;;;;;;;;;5052732;28;20495;-60
2023/05/21 05:02:25;;;;;;;1.38;1.13;;;;;;;;;;5053046;28;20068;-60
2023/05/21 05:04:51;;;;;;;2.17;1.10;;;;;;;;;;5058638;28;20146;-60
2023/05/21 05:07:17;;;;;;;2.83;1.50;;;;;;;;;;5059721;28;20079;-60
2023/05/21 05:09:43;;;;;;;3.22;1.50;;;;;;;;;;5059164;28;20507;-60
2023/05/21 05:12:09;;;;;;;1.38;1.27;;;;;;;;;;5055698;28;20063;-60
2023/05/21 05:14:35;;;;;;;1.48;1.27;;;;;;;;;;5050672;28;20093;-60
2023/05/21 05:17:01;;;;;;;1.48;1.05;;;;;;;;;;5056918;28;20040;-59
2023/05/21 05:19:27;;;;;;;1.67;1.20;;;;;;;;;;5059618;28;20040;-59
2023/05/21 05:21:53;;;;;;;1.77;1.20;;;;;;;;;;5054047;28;20094;-60
2023/05/21 05:24:19;;;;;;;1.38;0.90;;;;;;;;;;5053995;28;20048;-60
2023/05/21 05:26:45;;;;;;;0.95;0.85;;;;;;;;;;5060008;28;20479;-60
2023/05/21 05:29:11;;;;;;;1.25;1.00;;;;;;;;;;5057574;28;20067;-60
2023/05/21 05:31:38;;;;;;;1.33;1.20;;;;;;;;;;5055912;28;20395;-60
2023/05/21 05:34:04;;;;;;;2.63;0.80;;;;;;;;;;5056685;28;20439;-60
2023/05/21 05:36:30;;;;;;;0.95;0.73;;;;;;;;;;5054928;28;20106;-60
2023/05/21 05:38:56;;;;;;;2.42;1.00;;;;;;;;;;5057648;28;20039;-60
2023/05/21 05:41:22;;;;;;;1.17;0.80;;;;;;;;;;5062776;28;20364;-60
2023/05/21 05:43:48;;;;;;;1.15;0.88;;;;;;;;;;5057074;28;20463;-60
2023/05/21 05:46:14;;;;;;;1.73;1.23;;;;;;;;;;5057785;28;20454;-60
2023/05/21 05:48:40;;;;;;;1.20;1.10;;;;;;;;;;5057216;28;20556;-60
2023/05/21 05:51:06;;;;;;;1.48;1.17;;;;;;;;;;5051239;28;20041;-60
2023/05/21 05:53:32;;;;;;;2.17;1.23;;;;;;;;;;5058795;28;20033;-60
2023/05/21 05:55:58;;;;;;;1.80;1.23;;;;;;;;;;5058326;28;20043;-60
2023/05/21 05:58:25;;;;;;;3.10;1.45;;;;;;;;;;5053317;28;20076;-60
2023/05/21 06:00:51;;;;;;;1.92;1.40;;;;;;;;;;5054452;28;20510;-60
2023/05/21 06:03:17;;;;;;;1.20;1.10;;;;;;;;;;5057509;28;20424;-59
2023/05/21 06:05:43;;;;;;;1.45;1.27;;;;;;;;;;5052226;28;20075;-60
2023/05/21 06:08:09;;;;;;;1.70;1.60;;;;;;;;;;5053509;28;20067;-60
2023/05/21 06:10:36;;;;;;;3.28;1.60;;;;;;;;;;5049542;28;20060;-60
2023/05/21 06:13:02;;;;;;;2.78;1.75;;;;;;;;;;5055899;28;20047;-60
2023/05/21 06:15:28;;;;;;;2.22;1.80;;;;;;;;;;5051639;28;20076;-60
2023/05/21 06:17:54;;;;;;;1.52;1.40;;;;;;;;;;5047859;28;20075;-60
2023/05/21 06:20:20;;;;;;;2.25;1.10;;;;;;;;;;5055379;28;20420;-60
2023/05/21 06:22:46;;;;;;;2.03;1.48;;;;;;;;;;5054395;28;20094;-60
2023/05/21 06:25:12;;;;;;;1.90;1.33;;;;;;;;;;5053896;28;20048;-60
2023/05/21 06:27:38;;;;;;;0.95;0.90;;;;;;;;;;5057750;28;20040;-60
2023/05/21 06:30:04;;;;;;;0.95;0.88;;;;;;;;;;5052861;28;20057;-60
2023/05/21 06:32:30;;;;;;;2.85;1.40;;;;;;;;;;5056492;28;20417;-60
2023/05/21 06:34:56;;;;;;;1.73;1.27;;;;;;;;;;5057886;28;20411;-60
2023/05/21 06:37:22;;;;;;;1.70;1.20;;;;;;;;;;5059014;28;20040;-60
2023/05/21 06:39:48;;;;;;;1.17;1.00;;;;;;;;;;5053637;28;20079;-60
2023/05/21 06:42:15;;;;;;;2.03;1.50;;;;;;;;;;5059239;28;20051;-60
2023/05/21 06:44:41;;;;;;;3.92;2.00;;;;;;;;;;5059110;28;20062;-60
2023/05/21 06:47:07;;;;;;;1.50;1.30;;;;;;;;;;5053368;28;20136;-60
2023/05/21 06:49:33;;;;;;;1.83;1.42;;;;;;;;;;5057426;28;20081;-59
2023/05/21 06:52:00;;;;;;;1.83;1.55;;;;;;;;;;5063471;28;20467;-60
2023/05/21 06:54:26;;;;;;;1.52;1.27;;;;;;;;;;5060055;28;20111;-59
2023/05/21 06:56:52;;;;;;;1.60;1.35;;;;;;;;;;5062419;28;20120;-60
2023/05/21 06:59:18;;;;;;;2.05;1.40;;;;;;;;;;5052022;28;20090;-60
2023/05/21 07:01:44;;;;;;;3.38;1.70;;;;;;;;;;5054806;28;20345;-60
2023/05/21 07:04:10;;;;;;;1.13;1.02;;;;;;;;;;5045697;28;20049;-60
2023/05/21 07:06:37;;;;;;;1.52;1.30;;;;;;;;;;5044863;28;20567;-60
2023/05/21 07:09:04;;;;;;;1.45;1.05;;;;;;;;;;5039191;28;20556;-60
2023/05/21 07:11:30;;;;;;;1.10;1.00;;;;;;;;;;5052769;28;20071;-59
2023/05/21 07:13:57;;;;;;;2.88;1.08;;;;;;;;;;5063819;28;20033;-60
2023/05/21 07:16:23;;;;;;;1.27;1.17;;;;;;;;;;5056582;28;20041;-60
2023/05/21 07:18:49;;;;;;;1.17;1.08;;;;;;;;;;5050248;28;20423;-60
2023/05/21 07:21:15;;;;;;;1.73;1.00;;;;;;;;;;5060336;28;20040;-60
2023/05/21 07:23:41;;;;;;;2.35;1.48;;;;;;;;;;5064670;28;20039;-60
2023/05/21 07:26:08;;;;;;;1.35;1.05;;;;;;;;;;5048516;28;20128;-60
2023/05/21 07:28:34;;;;;;;2.65;1.80;;;;;;;;;;5053328;28;20037;-60
2023/05/21 07:31:00;;;;;;;1.15;1.05;;;;;;;;;;5060943;28;20037;-60
2023/05/21 07:33:27;;;;;;;2.80;1.65;;;;;;;;;;5068515;28;20498;-60
2023/05/21 07:35:53;;;;;;;1.15;1.05;;;;;;;;;;5065083;28;20040;-60
2023/05/21 07:38:19;;;;;;;2.25;1.35;;;;;;;;;;5059472;28;20086;-60
2023/05/21 07:40:45;;;;;;;4.15;1.67;;;;;;;;;;5048629;28;20547;-60
2023/05/21 07:43:12;;;;;;;1.40;1.17;;;;;;;;;;5047820;28;20076;-60
2023/05/21 07:45:38;;;;;;;2.28;1.20;;;;;;;;;;5061421;28;20430;-60
2023/05/21 07:48:04;;;;;;;2.63;1.60;;;;;;;;;;5050050;28;20037;-60
2023/05/21 07:50:30;;;;;;;2.45;1.30;;;;;;;;;;5056307;28;20036;-60
2023/05/21 07:52:56;;;;;;;1.40;1.27;;;;;;;;;;5050856;28;20055;-60
2023/05/21 07:55:22;;;;;;;1.10;1.00;;;;;;;;;;5055570;28;20052;-61
2023/05/21 07:57:48;;;;;;;1.75;0.73;;;;;;;;;;5047639;28;20559;-62
2023/05/21 08:00:14;;;;;;;1.73;1.17;;;;;;;;;;5067386;28;20120;-62
2023/05/21 08:02:40;;;;;;;2.42;1.55;;;;;;;;;;5068509;28;20059;-62
2023/05/21 08:05:06;;;;;;;1.95;1.52;;;;;;;;;;5061012;28;20074;-62
2023/05/21 08:07:32;;;;;;;1.50;1.40;;;;;;;;;;5048196;28;20060;-62
2023/05/21 08:09:59;;;;;;;1.83;1.35;;;;;;;;;;5050119;28;20091;-63
2023/05/21 08:12:25;;;;;;;1.40;1.30;;;;;;;;;;5055999;28;20040;-65
2023/05/21 08:14:51;;;;;;;1.65;1.20;;;;;;;;;;5060459;28;20036;-65
2023/05/21 08:17:17;;;;;;;3.03;1.85;;;;;;;;;;5059534;28;20044;-63
2023/05/21 08:19:43;;;;;;;2.22;1.73;;;;;;;;;;5064179;28;20091;-64
2023/05/21 08:22:09;;;;;;;1.98;1.75;;;;;;;;;;5049915;28;20125;-64
2023/05/21 08:24:35;;;;;;;1.58;1.48;;;;;;;;;;5064466;28;20082;-65
2023/05/21 08:27:01;;;;;;;2.22;1.88;;;;;;;;;;5049255;28;20037;-65
2023/05/21 08:29:27;;;;;;;2.28;1.95;;;;;;;;;;5050633;28;20081;-65
2023/05/21 08:31:53;;;;;;;1.85;1.42;;;;;;;;;;5058640;28;20075;-65
2023/05/21 08:34:19;;;;;;;1.65;1.10;;;;;;;;;;5055514;28;20121;-65
2023/05/21 08:36:46;;;;;;;2.10;1.40;;;;;;;;;;5062139;28;20041;-63
2023/05/21 08:39:12;;;;;;;1.73;1.45;;;;;;;;;;5059192;28;20044;-63
2023/05/21 08:41:39;;;;;;;3.20;1.50;;;;;;;;;;5054259;28;20028;-64
2023/05/21 08:44:09;;;;;;;2.95;1.83;;;;;;;;;;5057658;28;20036;-64
2023/05/21 08:46:36;;;;;;;2.15;1.95;;;;;;;;;;5063311;28;20123;-64
2023/05/21 08:49:02;;;;;;;2.33;1.90;;;;;;;;;;5057318;28;20561;-64
2023/05/21 08:51:30;;;;;;;2.13;1.80;;;;;;;;;;5054956;28;20033;-64
2023/05/21 08:53:57;;;;;;;2.38;1.73;;;;;;;;;;5057671;28;20037;-64
2023/05/21 08:56:23;;;;;;;2.88;2.15;;;;;;;;;;5062080;28;20037;-64
2023/05/21 08:58:50;;;;;;;2.75;2.03;;;;;;;;;;5059870;28;20048;-63
2023/05/21 09:01:18;;;;;;;1.80;1.70;;;;;;;;;;5054801;28;20040;-64
2023/05/21 09:03:45;;;;;;;3.08;1.27;;;;;;;;;;5055084;28;20044;-64
2023/05/21 09:06:12;;;;;;;2.08;1.58;;;;;;;;;;5055370;28;20040;-64
2023/05/21 09:08:43;;;;;;;4.07;2.13;;;;;;;;;;5048783;28;20057;-64
2023/05/21 09:11:10;;;;;;;1.60;1.50;;;;;;;;;;5061653;28;20116;-64
2023/05/21 09:13:37;;;;;;;2.75;1.23;;;;;;;;;;5060643;28;20474;-64
2023/05/21 09:16:03;;;;;;;2.83;1.65;;;;;;;;;;5051983;28;20051;-64
2023/05/21 09:18:29;;;;;;;2.55;1.10;;;;;;;;;;5059052;28;20040;-64
2023/05/21 09:20:55;;;;;;;2.05;1.40;;;;;;;;;;5053199;28;20037;-63
2023/05/21 09:23:21;;;;;;;2.05;1.70;;;;;;;;;;5055749;28;20141;-63
2023/05/21 09:25:48;;;;;;;2.40;2.03;;;;;;;;;;5057028;28;20037;-63
2023/05/21 09:28:15;;;;;;;2.35;1.48;;;;;;;;;;5062819;28;20496;-63
2023/05/21 09:30:48;;;;;;;2.00;1.80;;;;;;;;;;5057074;28;20044;-63
2023/05/21 09:33:24;;;;;;;3.05;1.83;;;;;;;;;;5061329;28;20132;-63
2023/05/21 09:35:50;;;;;;;3.80;1.65;;;;;;;;;;5059577;28;20047;-64
2023/05/21 09:38:17;;;;;;;3.20;1.95;;;;;;;;;;5062315;28;20036;-62
2023/05/21 09:40:45;;;;;;;2.28;1.80;;;;;;;;;;5058139;28;20041;-62
2023/05/21 09:43:13;;;;;;;2.33;1.48;;;;;;;;;;5065833;28;20048;-62
2023/05/21 09:45:49;;;;;;;2.17;1.50;;;;;;;;;;5064848;28;20116;-62
2023/05/21 09:48:15;;;;;;;2.45;1.80;;;;;;;;;;5061999;28;20090;-61
2023/05/21 09:50:41;;;;;;;2.75;1.60;;;;;;;;;;5059949;28;20076;-63
2023/05/21 09:53:12;;;;;;;1.80;1.30;;;;;;;;;;5046387;28;20451;-61
2023/05/21 09:55:40;;;;;;;1.23;1.10;;;;;;;;;;5045865;28;20090;-62
2023/05/21 09:58:06;;;;;;;1.95;1.20;;;;;;;;;;5046673;28;20040;-61
2023/05/21 10:00:32;;;;;;;2.88;1.25;;;;;;;;;;5050751;28;20049;-62
2023/05/21 10:03:01;;;;;;;2.22;1.30;;;;;;;;;;5046458;28;20041;-62
2023/05/21 10:05:28;;;;;;;3.55;1.60;;;;;;;;;;5053857;28;20087;-62
2023/05/21 10:08:03;;;;;;;1.48;1.25;;;;;;;;;;5051796;28;20060;-66
2023/05/21 10:10:30;;;;;;;1.23;1.13;;;;;;;;;;5048679;28;20049;-62
2023/05/21 10:13:00;;;;;;;1.38;1.00;;;;;;;;;;5059604;28;20036;-63
2023/05/21 10:15:28;;;;;;;1.75;1.35;;;;;;;;;;5057473;28;20061;-63
2023/05/21 10:17:55;;;;;;;1.33;1.10;;;;;;;;;;5053870;28;20754;-63
2023/05/21 10:20:21;;;;;;;2.67;1.25;;;;;;;;;;5053500;28;20048;-63
2023/05/21 10:22:49;;;;;;;1.23;1.05;;;;;;;;;;5051326;28;20037;-63
2023/05/21 10:25:16;;;;;;;1.60;1.48;;;;;;;;;;5048011;28;20040;-64
2023/05/21 10:27:42;;;;;;;1.67;1.40;;;;;;;;;;5054469;28;20040;-64
2023/05/21 10:30:08;;;;;;;2.00;1.70;;;;;;;;;;5045288;28;20083;-64
2023/05/21 10:32:35;;;;;;;1.95;1.50;;;;;;;;;;5047833;28;20048;-64
2023/05/21 10:35:01;;;;;;;1.65;1.42;;;;;;;;;;5055821;28;20392;-64
2023/05/21 10:37:27;;;;;;;1.92;1.73;;;;;;;;;;5053211;28;20388;-64
2023/05/21 10:39:54;;;;;;;2.55;1.75;;;;;;;;;;5050821;28;20461;-63
2023/05/21 10:42:24;;;;;;;2.05;1.40;;;;;;;;;;5051997;28;20029;-64
2023/05/21 10:44:59;;;;;;;1.73;1.23;;;;;;;;;;5057973;28;20064;-61
2023/05/21 10:47:31;;;;;;;1.77;1.50;;;;;;;;;;5060653;28;20586;-61
2023/05/21 10:49:57;;;;;;;2.85;1.65;;;;;;;;;;5061978;28;20124;-61
2023/05/21 10:52:42;;;;;;;2.92;1.65;;;;;;;;;;5056903;28;20119;-64
2023/05/21 10:55:08;;;;;;;2.63;1.50;;;;;;;;;;5062162;28;20305;-61
2023/05/21 10:57:53;;;;;;;1.58;1.10;;;;;;;;;;5057957;28;20070;-61
2023/05/21 11:00:19;;;;;;;1.52;1.20;;;;;;;;;;5062949;28;20036;-61
2023/05/21 11:02:47;;;;;;;1.88;1.30;;;;;;;;;;5062419;28;20049;-61
2023/05/21 11:05:13;;;;;;;1.48;1.08;;;;;;;;;;5061341;28;20076;-61
2023/05/21 11:07:57;;;;;;;1.77;0.98;;;;;;;;;;5052485;28;20478;-66
2023/05/21 11:10:31;;;;;;;0.80;0.77;;;;;;;;;;5052292;28;20040;-66
2023/05/21 11:13:13;;;;;;;2.00;0.82;;;;;;;;;;5055611;28;20114;-67
2023/05/21 11:15:58;;;;;;;1.52;1.00;;;;;;;;;;5055279;28;20032;-67
2023/05/21 11:18:44;;;;;;;2.00;1.08;;;;;;;;;;5055319;28;20103;-66
2023/05/21 11:21:11;;;;;;;2.08;1.17;;;;;;;;;;5054743;28;20084;-66
2023/05/21 11:23:54;;;;;;;1.20;1.02;;;;;;;;;;5056471;28;20045;-66
2023/05/21 11:26:23;;;;;;;1.33;1.15;;;;;;;;;;5061602;28;20364;-66
2023/05/21 11:28:50;;;;;;;2.10;1.08;;;;;;;;;;5049324;28;20121;-66
2023/05/21 11:31:26;;;;;;;1.20;1.10;;;;;;;;;;5054367;28;20522;-66
2023/05/21 11:34:10;;;;;;;1.80;1.40;;;;;;;;;;5044523;28;20045;-66
2023/05/21 11:36:37;;;;;;;2.80;1.60;;;;;;;;;;5054023;28;20072;-61
2023/05/21 11:39:29;;;;;;;1.63;1.13;;;;;;;;;;5059843;28;20049;-61
2023/05/21 11:41:59;;;;;;;2.03;1.40;;;;;;;;;;5050631;28;20484;-61
2023/05/21 11:44:38;;;;;;;2.53;1.73;;;;;;;;;;5052646;28;20079;-61
2023/05/21 11:47:05;;;;;;;2.10;1.67;;;;;;;;;;5058286;28;20044;-61
2023/05/21 11:49:31;;;;;;;1.95;1.60;;;;;;;;;;5059910;28;20036;-63
2023/05/21 11:51:59;;;;;;;2.92;1.70;;;;;;;;;;5056575;28;20041;-63
2023/05/21 11:54:25;;;;;;;2.72;1.65;;;;;;;;;;5056230;28;20040;-64
2023/05/21 11:56:52;;;;;;;2.95;2.17;;;;;;;;;;5062694;28;20154;-67
2023/05/21 11:59:18;;;;;;;4.40;2.60;;;;;;;;;;5038773;28;20368;-65
2023/05/21 12:01:44;;;;;;;1.92;1.73;;;;;;;;;;5056857;22;20048;-62
2023/05/21 12:04:11;;;;;;;1.92;1.42;;;;;;;;;;5026050;28;20057;-61
2023/05/21 12:06:43;;;;;;;1.55;1.33;;;;;;;;;;5027103;28;20041;-61
2023/05/21 12:09:10;;;;;;;1.48;1.38;;;;;;;;;;5015303;28;20045;-61
2023/05/21 12:11:38;;;;;;;3.75;2.17;;;;;;;;;;5022141;28;20052;-61
2023/05/21 12:14:08;;;;;;;3.92;2.15;;;;;;;;;;5018655;28;20041;-61
2023/05/21 12:16:34;;;;;;;3.25;2.42;;;;;;;;;;4993599;28;20417;-61
2023/05/21 12:19:01;;;;;;;2.47;2.08;;;;;;;;;;5008906;28;20119;-61
2023/05/21 12:21:30;;;;;;;2.80;2.60;;;;;;;;;;5001753;28;20067;-61
2023/05/21 12:23:56;;;;;;;3.75;3.17;;;;;;;;;;5003002;28;20430;-61
2023/05/21 12:26:26;;;;;;;6.63;2.75;;;;;;;;;;5005380;28;20053;-62
2023/05/21 12:28:55;;;;;;;3.13;2.38;;;;;;;;;;5011388;28;20736;-61
2023/05/21 12:31:22;;;;;;;3.47;2.80;;;;;;;;;;5026929;28;20045;-62
2023/05/21 12:33:51;;;;;;;3.55;2.25;;;;;;;;;;5028218;28;20045;-61
2023/05/21 12:36:26;;;;;;;5.10;2.45;;;;;;;;;;5028482;28;20071;-61
2023/05/21 12:38:52;;;;;;;3.28;2.35;;;;;;;;;;5027058;28;20532;-61
2023/05/21 12:41:18;;;;;;;3.97;2.45;;;;;;;;;;5028369;28;20083;-61
2023/05/21 12:43:44;;;;;;;3.38;2.40;;;;;;;;;;5026122;28;20124;-61
2023/05/21 12:46:13;;;;;;;3.92;3.00;;;;;;;;;;4999884;28;20046;-62
2023/05/21 12:48:41;;;;;;;3.58;2.90;;;;;;;;;;4988201;28;20056;-62
2023/05/21 12:51:07;;;;;;;3.05;2.75;;;;;;;;;;4987296;28;20042;-62
2023/05/21 12:53:41;;;;;;;6.45;3.70;;;;;;;;;;5003690;28;20070;-62
2023/05/21 12:56:10;;;;;;;5.03;3.78;;;;;;;;;;5007362;28;20077;-61
2023/05/21 12:58:39;;;;;;;3.85;3.35;;;;;;;;;;5026367;28;20053;-61
2023/05/21 13:01:06;;;;;;;4.13;3.55;;;;;;;;;;5026455;28;20567;-61
2023/05/21 13:03:32;;;;;;;4.95;3.65;;;;;;;;;;5027029;28;20215;-62
2023/05/21 13:06:00;;;;;;;3.42;3.10;;;;;;;;;;5026248;28;20049;-61
2023/05/21 13:08:26;;;;;;;3.70;3.30;;;;;;;;;;5010243;28;20189;-61
2023/05/21 13:10:52;;;;;;;3.15;2.95;;;;;;;;;;5006494;28;20045;-61
2023/05/21 13:13:18;;;;;;;3.85;3.45;;;;;;;;;;5003723;28;20818;-61
2023/05/21 13:15:44;;;;;;;6.68;4.00;;;;;;;;;;5005401;28;20038;-61
2023/05/21 13:18:11;;;;;;;4.63;4.22;;;;;;;;;;5003098;28;20038;-61
2023/05/21 13:20:37;;;;;;;3.92;3.50;;;;;;;;;;5004073;28;20054;-61
2023/05/21 13:23:03;;;;;;;3.15;2.85;;;;;;;;;;5004549;28;20490;-61
2023/05/21 13:25:31;;;;;;;4.80;3.83;;;;;;;;;;5016248;28;20124;-61
2023/05/21 13:28:01;;;;;;;4.10;3.70;;;;;;;;;;5023303;28;20045;-61
2023/05/21 13:30:27;;;;;;;4.40;3.70;;;;;;;;;;5024567;28;20041;-61
2023/05/21 13:32:54;;;;;;;3.70;3.20;;;;;;;;;;5024366;28;20116;-61
2023/05/21 13:35:20;;;;;;;2.95;2.75;;;;;;;;;;5017203;28;20449;-61
2023/05/21 13:37:46;;;;;;;3.97;3.30;;;;;;;;;;5010398;28;20048;-61
2023/05/21 13:40:13;;;;;;;4.68;4.18;;;;;;;;;;5023842;28;20595;-61
2023/05/21 13:42:40;;;;;;;7.00;5.40;;;;;;;;;;5023383;28;20411;-61
2023/05/21 13:45:06;;;;;;;7.05;4.43;;;;;;;;;;5008173;28;20042;-61
2023/05/21 13:47:32;;;;;;;5.20;4.70;;;;;;;;;;5012851;28;20048;-61
2023/05/21 13:49:59;;;;;;;6.40;5.13;;;;;;;;;;5020888;28;20409;-61
2023/05/21 13:52:25;;;;;;;7.18;4.65;;;;;;;;;;5024513;28;20044;-62
2023/05/21 13:54:51;;;;;;;6.45;4.55;;;;;;;;;;5023496;28;20041;-62
2023/05/21 13:57:17;;;;;;;4.93;4.05;;;;;;;;;;5024080;28;20124;-61
2023/05/21 13:59:43;;;;;;;5.45;4.35;;;;;;;;;;5024726;28;20072;-62
2023/05/21 14:02:09;;;;;;;3.70;3.40;;;;;;;;;;5023032;28;20375;-62
2023/05/21 14:04:35;;;;;;;5.05;4.55;;;;;;;;;;5006410;28;20041;-61
2023/05/21 14:07:01;;;;;;;4.30;3.75;;;;;;;;;;5023536;28;20037;-61
2023/05/21 14:09:28;;;;;;;6.68;4.10;;;;;;;;;;5007035;28;20509;-61
2023/05/21 14:11:55;;;;;;;4.82;3.65;;;;;;;;;;5006225;28;20046;-61
2023/05/21 14:14:22;;;;;;;4.13;3.72;;;;;;;;;;5024471;28;20052;-61
2023/05/21 14:16:48;;;;;;;4.45;3.60;;;;;;;;;;5024165;28;20107;-62
2023/05/21 14:19:14;;;;;;;5.55;4.60;;;;;;;;;;5024479;28;20558;-61
2023/05/21 14:21:41;;;;;;;5.18;3.75;;;;;;;;;;5025400;28;20379;-61
2023/05/21 14:24:07;;;;;;;5.38;4.30;;;;;;;;;;5023205;28;20045;-61
2023/05/21 14:26:35;;;;;;;4.22;3.58;;;;;;;;;;5023972;28;20112;-61
2023/05/21 14:29:01;;;;;;;5.13;4.63;;;;;;;;;;4997536;28;20568;-61
2023/05/21 14:31:27;;;;;;;6.13;5.20;;;;;;;;;;5004576;28;20044;-61
2023/05/21 14:33:54;;;;;;;5.72;4.03;;;;;;;;;;5020651;28;20037;-61
2023/05/21 14:36:20;;;;;;;5.20;4.22;;;;;;;;;;5025395;28;20045;-61
2023/05/21 14:38:46;;;;;;;4.35;3.95;;;;;;;;;;5024498;28;20494;-61
2023/05/21 14:41:12;;;;;;;4.93;3.40;;;;;;;;;;5025719;28;20049;-61
2023/05/21 14:43:38;;;;;;;5.55;3.92;;;;;;;;;;5025909;28;20049;-61